Time;durP1;ratioP1;P1;durP2;ratioP2;P2;SDS_P1;SDS_P2;PMS_P1;PMS_P2;Temp;Humidity;BMP_temperature;BMP_pressure;BME280_temperature;BME280_humidity;BME280_pressure;Samples;Min_cycle;Max_cycle;Signal;HPM_P1;HPM_P2
2023/08/20 00:00:40;;;;;;;17.13;15.63;;;;;;;17.93;100.00;98207.75;6217127;28;20235;-44
2023/08/20 00:03:43;;;;;;;18.07;16.37;;;;;;;17.88;100.00;98199.69;6215265;28;20235;-45
2023/08/20 00:06:46;;;;;;;16.77;15.20;;;;;;;17.92;100.00;98208.81;6209161;28;20267;-42
2023/08/20 00:09:48;;;;;;;15.67;14.37;;;;;;;17.89;100.00;98198.59;6213509;28;20247;-45
2023/08/20 00:12:50;;;;;;;16.07;14.63;;;;;;;17.91;100.00;98201.81;6215817;28;20307;-44
2023/08/20 00:15:53;;;;;;;16.93;15.43;;;;;;;17.90;100.00;98207.50;6220006;28;20263;-44
2023/08/20 00:18:55;;;;;;;17.87;16.17;;;;;;;17.89;100.00;98197.81;6216335;28;20303;-45
2023/08/20 00:21:57;;;;;;;18.27;16.43;;;;;;;17.87;100.00;98208.03;6207909;28;20228;-44
2023/08/20 00:25:00;;;;;;;17.30;15.60;;;;;;;17.87;100.00;98208.03;6218974;28;20236;-46
2023/08/20 00:28:05;;;;;;;18.60;16.90;;;;;;;17.83;100.00;98202.38;6219728;28;20482;-44
2023/08/20 00:31:07;;;;;;;16.47;14.77;;;;;;;17.79;100.00;98207.53;6217240;28;20240;-44
2023/08/20 00:34:10;;;;;;;15.77;14.30;;;;;;;17.78;100.00;98203.25;6220528;28;20232;-48
2023/08/20 00:37:12;;;;;;;17.23;15.63;;;;;;;17.79;100.00;98204.84;6218956;28;20240;-43
2023/08/20 00:40:15;;;;;;;19.23;16.53;;;;;;;17.78;100.00;98205.09;6219705;28;20259;-45
2023/08/20 00:43:17;;;;;;;16.93;15.33;;;;;;;17.78;100.00;98210.50;6222336;28;20263;-44
2023/08/20 00:46:19;;;;;;;16.93;15.43;;;;;;;17.78;100.00;98215.88;6202613;28;20247;-45
2023/08/20 00:49:22;;;;;;;17.33;15.73;;;;;;;17.75;100.00;98217.25;6209225;28;20314;-48
2023/08/20 00:52:25;;;;;;;17.23;15.63;;;;;;;17.66;100.00;98207.28;6219121;28;20254;-48
2023/08/20 00:55:28;;;;;;;18.33;16.63;;;;;;;17.69;100.00;98215.63;6219689;28;20334;-45
2023/08/20 00:58:31;;;;;;;18.23;16.50;;;;;;;17.64;100.00;98210.25;6225717;28;20595;-44
2023/08/20 01:01:33;;;;;;;17.57;15.93;;;;;;;17.64;100.00;98212.97;6215761;28;20258;-44
2023/08/20 01:04:36;;;;;;;17.63;16.00;;;;;;;17.64;100.00;98210.25;6209357;28;20235;-45
2023/08/20 01:07:53;;;;;;;17.70;16.10;;;;;;;17.62;100.00;98212.41;6218138;28;20243;-45
2023/08/20 01:11:06;;;;;;;17.07;15.43;;;;;;;17.61;100.00;98216.19;6219699;28;20338;-46
2023/08/20 01:14:16;;;;;;;18.87;17.07;;;;;;;17.57;100.00;98212.41;6212487;28;20318;-47
2023/08/20 01:17:18;;;;;;;19.47;17.47;;;;;;;17.52;100.00;98220.50;6211954;28;20233;-42
2023/08/20 01:20:25;;;;;;;19.00;17.00;;;;;;;17.51;100.00;98232.38;6218296;28;20243;-46
2023/08/20 01:23:43;;;;;;;19.57;17.57;;;;;;;17.47;100.00;98221.34;6214165;28;20243;-46
2023/08/20 01:27:10;;;;;;;20.40;18.40;;;;;;;17.46;100.00;98221.63;6209349;28;20609;-43
2023/08/20 01:30:12;;;;;;;20.40;18.50;;;;;;;17.43;100.00;98235.63;6201250;28;20228;-47
2023/08/20 01:33:16;;;;;;;19.63;17.77;;;;;;;17.40;100.00;98228.91;6211599;28;20370;-43
2023/08/20 01:36:18;;;;;;;19.50;17.70;;;;;;;17.39;100.00;98227.28;6219164;28;20216;-43
2023/08/20 01:39:20;;;;;;;19.23;17.50;;;;;;;17.39;100.00;98229.16;6201036;28;20215;-44
2023/08/20 01:42:22;;;;;;;19.30;17.47;;;;;;;17.39;100.00;98227.28;6201468;28;20235;-46
2023/08/20 01:45:26;;;;;;;21.03;18.87;;;;;;;17.36;100.00;98221.63;6207254;28;20231;-46
2023/08/20 01:48:28;;;;;;;21.23;19.23;;;;;;;17.35;100.00;98228.13;6217058;28;20297;-42
2023/08/20 01:51:30;;;;;;;20.23;18.20;;;;;;;17.33;100.00;98225.66;6216066;28;20611;-43
2023/08/20 01:54:33;;;;;;;20.43;18.50;;;;;;;17.32;100.00;98234.03;6220810;28;20223;-43
2023/08/20 01:57:35;;;;;;;22.73;20.63;;;;;;;17.30;100.00;98225.44;6215818;28;20253;-45
2023/08/20 02:00:38;;;;;;;22.33;20.20;;;;;;;17.28;100.00;98229.19;6208711;28;20727;-45
2023/08/20 02:03:40;;;;;;;21.47;19.33;;;;;;;17.25;100.00;98224.34;6216899;28;20726;-47
2023/08/20 02:06:43;;;;;;;20.50;18.33;;;;;;;17.25;100.00;98221.66;6216289;28;20240;-47
2023/08/20 02:09:45;;;;;;;21.97;19.70;;;;;;;17.24;100.00;98233.50;6215863;28;20247;-42
2023/08/20 02:12:47;;;;;;;20.10;17.97;;;;;;;17.17;100.00;98227.59;6218117;28;20877;-45
2023/08/20 02:16:01;;;;;;;19.97;18.03;;;;;;;17.17;100.00;98230.28;6216886;28;20231;-44
2023/08/20 02:19:05;;;;;;;19.80;17.97;;;;;;;17.18;100.00;98225.69;6216513;28;20240;-45
2023/08/20 02:22:07;;;;;;;20.17;18.30;;;;;;;17.19;100.00;98224.59;6198830;28;20266;-44
2023/08/20 02:25:10;;;;;;;20.13;18.20;;;;;;;17.19;100.00;98227.31;6207669;28;20333;-43
2023/08/20 02:28:12;;;;;;;19.40;17.70;;;;;;;17.17;100.00;98224.09;6211219;28;20766;-45
2023/08/20 02:31:14;;;;;;;20.10;17.63;;;;;;;17.15;100.00;98227.06;6215945;28;20228;-47
2023/08/20 02:34:16;;;;;;;19.03;17.27;;;;;;;17.15;100.00;98218.97;6216984;28;20240;-46
2023/08/20 02:37:20;;;;;;;20.30;18.30;;;;;;;17.13;100.00;98225.69;6218218;28;20236;-45
2023/08/20 02:40:22;;;;;;;20.90;18.83;;;;;;;17.11;100.00;98225.19;6213217;28;20232;-44
2023/08/20 02:43:25;;;;;;;20.60;18.60;;;;;;;17.06;100.00;98209.84;6214685;28;20226;-44
2023/08/20 02:46:27;;;;;;;19.83;17.73;;;;;;;17.05;100.00;98215.50;6217858;28;20740;-44
2023/08/20 02:49:31;;;;;;;19.00;17.30;;;;;;;17.01;100.00;98216.03;6216003;28;20598;-46
2023/08/20 02:52:34;;;;;;;19.70;17.90;;;;;;;17.00;100.00;98217.09;6198045;28;20235;-47
2023/08/20 02:55:36;;;;;;;19.20;17.40;;;;;;;16.97;100.00;98220.31;6212340;28;20239;-44
2023/08/20 02:58:38;;;;;;;19.13;17.23;;;;;;;16.99;100.00;98217.34;6200835;28;20690;-46
2023/08/20 03:01:40;;;;;;;18.60;16.83;;;;;;;16.98;100.00;98229.22;6215365;28;20246;-44
2023/08/20 03:04:43;;;;;;;19.87;17.77;;;;;;;16.99;100.00;98230.81;6216583;28;20243;-45
2023/08/20 03:07:45;;;;;;;19.57;17.57;;;;;;;16.97;100.00;98227.59;6216128;28;20714;-45
2023/08/20 03:10:47;;;;;;;18.63;16.90;;;;;;;16.95;100.00;98227.06;6207107;28;20342;-44
2023/08/20 03:13:49;;;;;;;17.93;16.23;;;;;;;16.90;100.00;98222.50;6205373;28;20250;-44
2023/08/20 03:16:51;;;;;;;17.30;15.83;;;;;;;16.89;100.00;98225.44;6215202;28;20346;-46
2023/08/20 03:19:58;;;;;;;17.50;15.90;;;;;;;16.90;100.00;98232.47;6212592;28;20270;-46
2023/08/20 03:23:01;;;;;;;17.50;15.73;;;;;;;16.92;100.00;98230.28;6199076;28;20685;-44
2023/08/20 03:26:03;;;;;;;16.67;15.17;;;;;;;16.94;100.00;98236.19;6218482;28;20606;-45
2023/08/20 03:29:05;;;;;;;15.53;14.03;;;;;;;16.92;100.00;98222.22;6214329;28;20228;-45
2023/08/20 03:32:07;;;;;;;16.47;15.03;;;;;;;16.93;100.00;98221.13;6210994;28;20287;-44
2023/08/20 03:35:10;;;;;;;17.33;15.73;;;;;;;16.89;100.00;98225.44;6198951;28;20703;-45
2023/08/20 03:38:12;;;;;;;17.23;15.63;;;;;;;16.85;100.00;98230.56;6205676;28;20235;-48
2023/08/20 03:41:14;;;;;;;18.60;16.80;;;;;;;16.80;100.00;98235.94;6215067;28;20227;-45
2023/08/20 03:44:17;;;;;;;18.57;16.77;;;;;;;16.74;100.00;98224.34;6199537;28;20236;-45
2023/08/20 03:47:21;;;;;;;18.87;16.73;;;;;;;16.72;100.00;98233.78;6215359;28;20330;-44
2023/08/20 03:50:24;;;;;;;18.90;16.97;;;;;;;16.62;100.00;98223.78;6215500;28;20751;-47
2023/08/20 03:53:26;;;;;;;17.47;15.90;;;;;;;16.68;100.00;98238.03;6193918;28;20236;-44
2023/08/20 03:56:28;;;;;;;18.13;16.33;;;;;;;16.67;100.00;98237.25;6216520;28;20237;-44
2023/08/20 03:59:31;;;;;;;19.80;17.80;;;;;;;16.65;100.00;98234.03;6193391;28;20676;-42
2023/08/20 04:02:34;;;;;;;19.70;17.83;;;;;;;16.62;100.00;98237.22;6215874;28;20749;-48
2023/08/20 04:05:39;;;;;;;20.73;18.50;;;;;;;16.60;100.00;98236.72;6208135;28;20224;-44
2023/08/20 04:08:41;;;;;;;19.67;17.73;;;;;;;16.59;100.00;98240.44;6213199;28;20224;-44
2023/08/20 04:11:45;;;;;;;18.37;16.67;;;;;;;16.58;100.00;98238.84;6215894;28;20434;-42
2023/08/20 04:14:47;;;;;;;18.87;17.07;;;;;;;16.57;100.00;98241.81;6221208;28;20326;-42
2023/08/20 04:17:49;;;;;;;20.60;18.50;;;;;;;16.59;100.00;98237.75;6215218;28;20580;-43
2023/08/20 04:20:53;;;;;;;20.23;18.30;;;;;;;16.59;100.00;98235.06;6209589;28;20236;-45
2023/08/20 04:23:55;;;;;;;20.13;18.23;;;;;;;16.56;100.00;98238.31;6205759;28;20327;-45
2023/08/20 04:26:58;;;;;;;17.80;16.10;;;;;;;16.63;100.00;98246.09;6198112;28;20318;-43
2023/08/20 04:30:03;;;;;;;19.57;17.50;;;;;;;16.63;100.00;98238.84;6201529;28;20267;-45
2023/08/20 04:33:06;;;;;;;19.97;18.07;;;;;;;16.63;100.00;98243.41;6211924;28;20228;-45
2023/08/20 04:36:09;;;;;;;19.93;17.93;;;;;;;16.67;100.00;98247.19;6199694;28;20298;-45
2023/08/20 04:39:12;;;;;;;18.50;16.70;;;;;;;16.70;100.00;98250.16;6213185;28;20215;-45
2023/08/20 04:42:19;;;;;;;18.87;17.07;;;;;;;16.70;100.00;98260.94;6204942;28;20216;-47
2023/08/20 04:45:21;;;;;;;21.73;19.23;;;;;;;16.69;100.00;98253.91;6221409;28;20309;-47
2023/08/20 04:48:24;;;;;;;21.10;18.77;;;;;;;16.72;100.00;98260.69;6203956;28;20305;-45
2023/08/20 04:51:26;;;;;;;19.07;17.17;;;;;;;16.74;100.00;98263.91;6214336;28;20605;-45
2023/08/20 04:54:28;;;;;;;18.83;17.13;;;;;;;16.75;100.00;98262.84;6213834;28;20645;-44
2023/08/20 04:57:30;;;;;;;17.83;16.20;;;;;;;16.80;100.00;98267.41;6213346;28;20247;-46
2023/08/20 05:00:33;;;;;;;19.70;17.90;;;;;;;16.82;100.00;98267.97;6220479;28;20262;-44
2023/08/20 05:03:40;;;;;;;20.93;18.93;;;;;;;16.80;100.00;98253.94;6192502;28;20780;-46
2023/08/20 05:06:43;;;;;;;22.37;20.20;;;;;;;16.87;100.00;98273.34;6188747;28;20227;-44
2023/08/20 05:09:45;;;;;;;21.97;19.00;;;;;;;16.90;100.00;98272.81;6214058;28;20228;-47
2023/08/20 05:12:47;;;;;;;20.10;18.23;;;;;;;16.92;100.00;98267.97;6217053;28;20228;-43
2023/08/20 05:15:50;;;;;;;21.80;18.10;;;;;;;16.94;100.00;98269.31;6205004;28;20228;-46
2023/08/20 05:18:53;;;;;;;20.43;18.07;;;;;;;16.97;100.00;98268.78;6197862;28;20235;-45
2023/08/20 05:21:58;;;;;;;20.13;18.23;;;;;;;16.99;100.00;98276.56;6215969;28;20240;-46
2023/08/20 05:25:04;;;;;;;20.97;18.97;;;;;;;17.02;100.00;98281.44;6227178;28;20228;-45
2023/08/20 05:28:06;;;;;;;20.73;18.80;;;;;;;17.02;100.00;98278.75;6211576;28;20235;-46
2023/08/20 05:31:10;;;;;;;21.67;19.67;;;;;;;17.06;100.00;98279.81;6224367;28;20696;-43
2023/08/20 05:34:12;;;;;;;23.07;20.87;;;;;;;17.12;100.00;98291.41;6184583;28;20250;-43
2023/08/20 05:37:15;;;;;;;21.27;19.17;;;;;;;17.15;100.00;98290.88;6216540;28;20232;-48
2023/08/20 05:40:17;;;;;;;21.47;19.47;;;;;;;17.18;100.00;98290.31;6216840;28;20708;-46
2023/08/20 05:43:21;;;;;;;21.17;19.17;;;;;;;17.23;100.00;98288.41;6207223;28;20243;-45
2023/08/20 05:46:26;;;;;;;23.43;21.03;;;;;;;17.26;100.00;98293.28;6197357;28;20236;-43
2023/08/20 05:49:30;;;;;;;24.83;22.47;;;;;;;17.36;100.00;98297.06;6218664;28;20236;-46
2023/08/20 05:52:33;;;;;;;23.10;21.00;;;;;;;17.39;100.00;98299.19;6218333;28;20239;-46
2023/08/20 05:55:36;;;;;;;21.93;19.93;;;;;;;17.44;100.00;98302.72;6200241;28;20702;-47
2023/08/20 05:58:38;;;;;;;22.03;19.97;;;;;;;17.50;100.00;98298.13;6209648;28;20321;-45
2023/08/20 06:01:40;;;;;;;22.00;19.97;;;;;;;17.56;100.00;98297.03;6199320;28;20244;-43
2023/08/20 06:04:42;;;;;;;23.40;21.03;;;;;;;17.63;100.00;98300.22;6218675;28;20386;-45
2023/08/20 06:07:45;;;;;;;23.90;21.70;;;;;;;17.69;100.00;98309.13;6217700;28;20232;-46
2023/08/20 06:10:47;;;;;;;25.53;23.10;;;;;;;17.77;100.00;98304.00;6217868;28;20428;-44
2023/08/20 06:13:49;;;;;;;27.23;24.47;;;;;;;17.86;100.00;98301.56;6209161;28;20279;-45
2023/08/20 06:16:51;;;;;;;26.27;23.80;;;;;;;17.96;100.00;98311.53;6216949;28;20611;-45
2023/08/20 06:19:54;;;;;;;25.10;22.80;;;;;;;18.07;100.00;98304.19;6217375;28;20228;-47
2023/08/20 06:22:56;;;;;;;28.93;25.73;;;;;;;18.20;100.00;98307.13;6216173;28;20240;-49
2023/08/20 06:25:58;;;;;;;30.17;27.17;;;;;;;18.32;100.00;98304.09;6215560;28;20279;-45
2023/08/20 06:29:00;;;;;;;28.73;25.77;;;;;;;18.39;100.00;98299.22;6209611;28;20272;-44
2023/08/20 06:32:03;;;;;;;27.93;25.23;;;;;;;18.55;100.00;98311.53;6217772;28;20963;-45
2023/08/20 06:35:06;;;;;;;27.87;25.23;;;;;;;18.62;100.00;98300.47;6214872;28;20273;-45
2023/08/20 06:38:08;;;;;;;29.37;26.63;;;;;;;18.76;100.00;98303.38;6215534;28;20233;-48
2023/08/20 06:41:10;;;;;;;29.33;26.20;;;;;;;18.79;100.00;98292.81;6208330;28;20228;-46
2023/08/20 06:44:13;;;;;;;24.90;22.63;;;;;;;18.92;100.00;98294.09;6217326;28;20311;-45
2023/08/20 06:47:15;;;;;;;26.07;23.63;;;;;;;19.03;100.00;98295.63;6216870;28;20236;-49
2023/08/20 06:50:17;;;;;;;27.03;24.37;;;;;;;19.15;100.00;98295.25;6199097;28;20234;-44
2023/08/20 06:53:20;;;;;;;27.23;24.83;;;;;;;19.30;100.00;98302.44;6212419;28;20664;-46
2023/08/20 06:56:23;;;;;;;25.13;22.83;;;;;;;19.46;100.00;98293.13;6199788;28;20595;-49
2023/08/20 06:59:25;;;;;;;25.47;23.07;;;;;;;19.58;100.00;98295.44;6216360;28;20231;-45
2023/08/20 07:02:27;;;;;;;26.87;24.37;;;;;;;19.79;100.00;98296.84;6215089;28;20602;-47
2023/08/20 07:05:29;;;;;;;25.07;22.63;;;;;;;19.97;100.00;98284.50;6216902;28;20226;-45
2023/08/20 07:08:32;;;;;;;22.37;20.43;;;;;;;20.14;100.00;98285.94;6211177;28;20229;-47
2023/08/20 07:11:34;;;;;;;21.47;19.60;;;;;;;20.24;100.00;98277.69;6197251;28;20330;-48
2023/08/20 07:14:36;;;;;;;21.40;19.50;;;;;;;20.44;100.00;98295.56;6214438;28;20228;-46
2023/08/20 07:17:39;;;;;;;20.87;19.07;;;;;;;20.62;100.00;98300.22;6219586;28;20359;-44
2023/08/20 07:20:44;;;;;;;20.63;18.83;;;;;;;20.79;100.00;98300.53;6204995;28;20599;-48
2023/08/20 07:23:46;;;;;;;21.20;19.40;;;;;;;20.97;100.00;98301.59;6209923;28;20318;-45
2023/08/20 07:26:59;;;;;;;19.93;18.23;;;;;;;21.14;100.00;98303.81;6212666;28;20236;-48
2023/08/20 07:30:01;;;;;;;21.43;19.60;;;;;;;21.33;100.00;98303.81;6213682;28;20231;-45
2023/08/20 07:33:04;;;;;;;34.07;30.97;;;;;;;21.48;100.00;98297.31;6214216;28;20264;-45
2023/08/20 07:36:07;;;;;;;27.73;25.33;;;;;;;21.70;100.00;98311.00;6213606;28;20220;-50
2023/08/20 07:39:09;;;;;;;23.60;21.57;;;;;;;21.87;100.00;98307.69;6209918;28;20224;-49
2023/08/20 07:42:12;;;;;;;21.03;19.33;;;;;;;22.08;100.00;98317.09;6214379;28;20296;-46
2023/08/20 07:45:14;;;;;;;19.90;18.17;;;;;;;22.22;100.00;98317.13;6214201;28;20223;-47
2023/08/20 07:48:16;;;;;;;18.07;16.57;;;;;;;22.36;100.00;98315.19;6213859;28;20247;-46
2023/08/20 07:51:18;;;;;;;19.23;17.43;;;;;;;22.49;100.00;98316.28;6207667;28;20230;-46
2023/08/20 07:54:20;;;;;;;17.23;15.63;;;;;;;22.53;100.00;98297.47;6216903;28;20246;-46
2023/08/20 07:57:23;;;;;;;16.33;14.87;;;;;;;22.70;100.00;98311.19;6214908;28;20722;-48
2023/08/20 08:00:25;;;;;;;16.90;15.40;;;;;;;22.84;100.00;98322.03;6211895;28;20226;-47
2023/08/20 08:03:28;;;;;;;16.63;15.13;;;;;;;22.90;100.00;98313.47;6197032;28;20247;-46
2023/08/20 08:06:31;;;;;;;15.27;13.97;;;;;;;23.06;100.00;98327.53;6212031;28;20231;-47
2023/08/20 08:09:34;;;;;;;15.20;13.93;;;;;;;23.16;100.00;98327.31;6208373;28;20314;-48
2023/08/20 08:12:36;;;;;;;14.83;13.57;;;;;;;23.31;100.00;98328.84;6214367;28;20593;-46
2023/08/20 08:15:38;;;;;;;14.90;13.70;;;;;;;23.44;100.00;98327.16;6196514;28;20348;-47
2023/08/20 08:18:41;;;;;;;14.65;13.45;;;;;;;23.55;100.00;98327.75;6193857;28;20654;-48
2023/08/20 08:21:44;;;;;;;13.55;12.45;;;;;;;23.65;99.68;98320.16;6212382;28;20996;-47
2023/08/20 08:24:46;;;;;;;14.68;13.32;;;;;;;23.75;98.89;98324.53;6214914;28;20335;-49
2023/08/20 08:27:48;;;;;;;15.23;13.88;;;;;;;23.81;97.51;98314.31;6212045;28;20746;-48
2023/08/20 08:31:01;;;;;;;15.18;13.85;;;;;;;24.00;96.58;98331.19;6213856;28;20856;-49
2023/08/20 08:34:06;;;;;;;14.35;13.07;;;;;;;24.09;96.49;98323.06;6206039;28;20890;-48
2023/08/20 08:37:08;;;;;;;36.35;33.15;;;;;;;24.20;95.33;98332.56;6212477;28;20712;-47
2023/08/20 08:40:12;;;;;;;17.70;16.10;;;;;;;24.30;93.62;98332.28;6214036;28;20260;-47
2023/08/20 08:43:16;;;;;;;15.20;13.90;;;;;;;24.38;90.76;98322.53;6213072;28;20307;-49
2023/08/20 08:46:20;;;;;;;74.80;67.22;;;;;;;24.57;90.32;98327.72;6213746;28;20627;-44
2023/08/20 08:49:22;;;;;;;37.13;33.40;;;;;;;24.63;88.74;98326.44;6212971;28;20602;-46
2023/08/20 08:52:26;;;;;;;17.25;15.65;;;;;;;24.84;83.73;98332.09;6218410;28;20236;-45
2023/08/20 08:55:28;;;;;;;14.00;12.80;;;;;;;25.00;80.88;98346.06;6214932;28;20248;-46
2023/08/20 08:58:32;;;;;;;14.70;13.23;;;;;;;25.30;72.62;98333.41;6217574;28;20236;-47
2023/08/20 09:01:39;;;;;;;14.00;12.70;;;;;;;25.56;72.58;98334.16;6212575;28;20398;-46
2023/08/20 09:04:42;;;;;;;13.45;12.10;;;;;;;25.67;74.62;98349.09;6218065;28;20573;-44
2023/08/20 09:07:45;;;;;;;12.80;11.70;;;;;;;25.66;74.99;98341.19;6216559;28;20698;-46
2023/08/20 09:10:51;;;;;;;11.63;10.27;;;;;;;25.83;68.53;98351.31;6207912;28;20367;-46
2023/08/20 09:13:54;;;;;;;10.57;9.57;;;;;;;25.99;64.78;98352.38;6216476;28;20235;-45
2023/08/20 09:17:00;;;;;;;11.65;10.48;;;;;;;26.13;67.83;98347.53;6211583;28;20723;-47
2023/08/20 09:20:04;;;;;;;12.02;11.02;;;;;;;26.11;69.22;98346.25;6217449;28;20549;-47
2023/08/20 09:23:13;;;;;;;12.77;11.68;;;;;;;26.13;73.07;98342.06;6217438;28;20227;-47
2023/08/20 09:26:15;;;;;;;10.85;9.85;;;;;;;26.11;71.59;98354.44;6217331;28;20228;-46
2023/08/20 09:29:18;;;;;;;11.10;9.18;;;;;;;26.19;71.23;98351.66;6215637;28;20446;-48
2023/08/20 09:32:25;;;;;;;8.40;7.60;;;;;;;26.45;59.17;98359.78;6213337;28;20236;-48
2023/08/20 09:35:27;;;;;;;9.30;8.25;;;;;;;26.67;58.00;98355.16;6217269;28;20343;-45
2023/08/20 09:38:29;;;;;;;9.50;8.60;;;;;;;26.73;60.64;98351.88;6217750;28;20235;-48
2023/08/20 09:41:35;;;;;;;9.30;8.50;;;;;;;26.64;62.28;98356.59;6217789;28;20773;-45
2023/08/20 09:44:40;;;;;;;9.70;8.82;;;;;;;26.54;63.57;98348.78;6210140;28;20698;-46
2023/08/20 09:47:45;;;;;;;9.38;8.52;;;;;;;26.52;62.78;98353.78;6199499;28;20587;-48
2023/08/20 09:50:49;;;;;;;9.10;8.20;;;;;;;26.75;63.40;98346.91;6220931;28;20819;-50
2023/08/20 09:54:13;;;;;;;8.85;7.95;;;;;;;26.85;61.79;98348.44;6216929;28;20231;-45
2023/08/20 09:57:44;;;;;;;8.30;7.60;;;;;;;26.83;59.32;98345.22;6213648;28;20229;-49
2023/08/20 10:00:51;;;;;;;8.32;7.70;;;;;;;26.87;61.50;98337.19;6218830;28;20229;-48
2023/08/20 10:03:54;;;;;;;7.65;7.05;;;;;;;26.93;59.83;98335.84;6217327;28;20237;-48
2023/08/20 10:07:01;;;;;;;8.25;7.43;;;;;;;27.11;58.93;98339.28;6183250;28;20603;-47
2023/08/20 10:10:08;;;;;;;7.55;6.95;;;;;;;27.36;58.28;98342.91;6215805;28;20259;-45
2023/08/20 10:13:12;;;;;;;8.27;7.47;;;;;;;27.46;54.10;98337.03;6208577;28;20236;-45
2023/08/20 10:16:21;;;;;;;8.32;7.53;;;;;;;27.64;53.03;98343.94;6215757;28;20238;-47
2023/08/20 10:19:24;;;;;;;8.35;7.63;;;;;;;27.72;54.94;98329.38;6216028;28;20530;-48
2023/08/20 10:22:35;;;;;;;8.40;7.60;;;;;;;27.65;55.73;98336.53;6212969;28;20232;-45
2023/08/20 10:25:46;;;;;;;7.60;6.90;;;;;;;27.65;55.63;98334.59;6210185;28;20232;-46
2023/08/20 10:28:49;;;;;;;7.65;7.05;;;;;;;27.72;52.00;98339.53;6217421;28;20265;-44
2023/08/20 10:31:54;;;;;;;7.32;6.55;;;;;;;27.96;50.04;98339.56;6216434;28;20298;-46
2023/08/20 10:34:57;;;;;;;7.55;6.95;;;;;;;28.05;50.18;98338.69;6213174;28;20231;-44
2023/08/20 10:38:11;;;;;;;6.95;6.25;;;;;;;27.99;52.58;98338.91;6218546;28;20780;-49
2023/08/20 10:41:18;;;;;;;8.35;5.93;;;;;;;28.16;48.75;98328.88;6208827;28;20236;-47
2023/08/20 10:44:23;;;;;;;6.63;6.03;;;;;;;28.25;46.22;98340.53;6217842;28;20235;-49
2023/08/20 10:47:35;;;;;;;5.72;5.22;;;;;;;28.38;43.37;98331.19;6215525;28;20228;-44
2023/08/20 10:50:40;;;;;;;5.38;4.85;;;;;;;28.33;44.37;98328.66;6215238;28;20228;-49
2023/08/20 10:54:01;;;;;;;7.82;5.80;;;;;;;28.27;45.38;98335.47;6209917;28;20602;-46
2023/08/20 10:57:04;;;;;;;6.90;6.30;;;;;;;28.36;46.00;98327.19;6219364;28;20235;-47
2023/08/20 11:00:14;;;;;;;5.78;5.38;;;;;;;28.32;46.68;98318.81;6217235;28;20222;-47
2023/08/20 11:03:18;;;;;;;6.65;6.05;;;;;;;28.39;49.38;98326.50;6215871;28;20219;-48
2023/08/20 11:06:23;;;;;;;6.82;6.22;;;;;;;28.40;50.87;98317.94;6217199;28;20229;-45
2023/08/20 11:09:29;;;;;;;6.20;5.70;;;;;;;28.39;50.31;98316.34;6208371;28;20676;-44
2023/08/20 11:12:31;;;;;;;6.95;6.03;;;;;;;28.43;47.62;98313.72;6215882;28;20238;-47
2023/08/20 11:15:34;;;;;;;6.25;5.75;;;;;;;28.55;48.34;98319.19;6214496;28;20361;-47
2023/08/20 11:18:37;;;;;;;6.20;5.60;;;;;;;28.75;43.66;98303.72;6217579;28;20318;-48
2023/08/20 11:21:41;;;;;;;5.97;5.47;;;;;;;28.94;45.77;98316.81;6210144;28;20335;-46
2023/08/20 11:24:43;;;;;;;6.75;6.15;;;;;;;28.85;47.24;98316.16;6214744;28;20273;-46
2023/08/20 11:27:45;;;;;;;9.90;6.85;;;;;;;28.88;45.54;98304.50;6212802;28;20235;-45
2023/08/20 11:30:49;;;;;;;6.88;6.20;;;;;;;29.04;44.21;98303.44;6214154;28;20234;-48
2023/08/20 11:33:51;;;;;;;6.70;6.03;;;;;;;29.07;46.35;98304.69;6215628;28;20241;-47
2023/08/20 11:36:56;;;;;;;6.53;5.95;;;;;;;29.04;47.15;98306.19;6209796;28;20761;-46
2023/08/20 11:39:59;;;;;;;6.45;5.90;;;;;;;29.07;46.16;98296.47;6214258;28;20243;-46
2023/08/20 11:43:05;;;;;;;9.23;8.27;;;;;;;29.07;49.05;98299.22;6214831;28;20342;-45
2023/08/20 11:46:13;;;;;;;9.25;6.85;;;;;;;29.05;45.12;98288.56;6213461;28;20419;-45
2023/08/20 11:49:15;;;;;;;11.15;6.55;;;;;;;29.21;45.68;98296.88;6214013;28;20391;-45
2023/08/20 11:52:20;;;;;;;6.88;6.28;;;;;;;29.17;44.85;98290.47;6210848;28;20243;-45
2023/08/20 11:55:24;;;;;;;6.38;5.75;;;;;;;29.29;44.71;98297.84;6215392;28;20359;-46
2023/08/20 11:58:28;;;;;;;6.35;5.75;;;;;;;29.28;46.54;98291.56;6215543;28;20228;-49
2023/08/20 12:01:32;;;;;;;6.97;5.47;;;;;;;29.50;40.46;98294.88;6215361;28;20715;-51
2023/08/20 12:04:37;;;;;;;6.10;5.53;;;;;;;29.40;40.45;98298.94;6216561;28;20323;-51
2023/08/20 12:07:39;;;;;;;6.57;4.93;;;;;;;29.34;44.79;98285.81;6215574;28;20371;-46
2023/08/20 12:10:43;;;;;;;6.82;5.70;;;;;;;29.30;42.47;98296.69;6201275;28;20431;-49
2023/08/20 12:13:48;;;;;;;9.48;5.32;;;;;;;29.46;38.93;98294.00;6196968;28;20315;-46
2023/08/20 12:16:53;;;;;;;5.45;4.97;;;;;;;29.53;39.33;98284.00;6213185;28;20336;-48
2023/08/20 12:19:55;;;;;;;5.80;5.15;;;;;;;29.47;41.58;98282.69;6215909;28;20711;-47
2023/08/20 12:23:06;;;;;;;6.15;5.65;;;;;;;29.31;43.41;98287.34;6222177;28;20232;-51
2023/08/20 12:26:09;;;;;;;6.03;5.50;;;;;;;29.24;44.26;98282.44;6219577;28;20241;-50
2023/08/20 12:29:11;;;;;;;5.97;5.38;;;;;;;29.32;41.73;98285.38;6219219;28;20232;-48
2023/08/20 12:32:14;;;;;;;6.00;5.47;;;;;;;29.45;42.33;98284.94;6212971;28;20366;-46
2023/08/20 12:35:16;;;;;;;6.43;5.63;;;;;;;29.43;43.00;98278.25;6215587;28;20247;-50
2023/08/20 12:38:19;;;;;;;5.90;5.45;;;;;;;29.36;43.58;98278.03;6216701;28;20223;-50
2023/08/20 12:41:22;;;;;;;6.60;6.00;;;;;;;29.17;43.57;98265.00;6219229;28;20347;-50
2023/08/20 12:44:24;;;;;;;6.00;5.40;;;;;;;29.23;41.80;98269.88;6207994;28;20228;-48
2023/08/20 12:47:27;;;;;;;5.75;5.05;;;;;;;29.33;44.20;98279.53;6210959;28;20231;-48
2023/08/20 12:50:30;;;;;;;6.93;5.05;;;;;;;29.53;41.15;98278.50;6217779;28;20362;-49
2023/08/20 12:53:32;;;;;;;6.47;5.88;;;;;;;29.61;40.22;98271.31;6207888;28;20731;-49
2023/08/20 12:56:34;;;;;;;7.40;5.72;;;;;;;29.66;40.59;98265.56;6219352;28;20232;-50
2023/08/20 12:59:37;;;;;;;6.80;5.47;;;;;;;29.51;41.90;98263.56;6216223;28;20387;-50
2023/08/20 13:02:39;;;;;;;5.90;5.40;;;;;;;29.41;46.06;98266.78;6217031;28;20538;-44
2023/08/20 13:05:42;;;;;;;6.32;4.88;;;;;;;29.42;40.51;98265.66;6217015;28;20224;-53
2023/08/20 13:08:45;;;;;;;6.63;5.13;;;;;;;29.42;43.17;98260.97;6217981;28;20686;-53
2023/08/20 13:11:48;;;;;;;7.85;5.05;;;;;;;29.46;40.52;98253.63;6217729;28;20239;-53
2023/08/20 13:14:51;;;;;;;6.03;5.07;;;;;;;29.35;43.47;98255.28;6195448;28;20242;-55
2023/08/20 13:17:54;;;;;;;6.03;5.20;;;;;;;29.40;42.21;98259.72;6219664;28;20234;-54
2023/08/20 13:20:58;;;;;;;6.22;4.90;;;;;;;29.27;43.56;98259.00;6216181;28;20240;-56
2023/08/20 13:24:00;;;;;;;5.82;5.00;;;;;;;29.42;39.32;98254.69;6217337;28;20235;-54
2023/08/20 13:27:02;;;;;;;5.25;4.75;;;;;;;29.38;42.22;98249.09;6215617;28;20484;-54
2023/08/20 13:30:05;;;;;;;4.90;4.28;;;;;;;29.24;42.97;98252.25;6212797;28;20290;-52
2023/08/20 13:33:08;;;;;;;5.88;5.28;;;;;;;29.04;45.25;98253.25;6216654;28;20587;-55
2023/08/20 13:36:10;;;;;;;5.05;4.65;;;;;;;28.88;45.86;98252.38;6217983;28;20267;-53
2023/08/20 13:39:18;;;;;;;5.63;4.53;;;;;;;28.81;44.12;98252.97;6218507;28;20233;-53
2023/08/20 13:42:20;;;;;;;4.50;4.03;;;;;;;29.11;37.65;98244.41;6218767;28;20217;-55
2023/08/20 13:45:24;;;;;;;5.22;4.72;;;;;;;29.11;44.54;98244.41;6216087;28;20228;-54
2023/08/20 13:48:26;;;;;;;4.22;3.80;;;;;;;29.26;37.24;98247.22;6218493;28;20315;-55
2023/08/20 13:51:29;;;;;;;5.30;4.80;;;;;;;29.00;43.16;98228.47;6219516;28;20227;-54
2023/08/20 13:54:32;;;;;;;6.43;3.88;;;;;;;28.83;46.62;98234.22;6216566;28;20220;-54
2023/08/20 13:57:35;;;;;;;6.00;4.57;;;;;;;28.56;47.23;98235.78;6211276;28;20310;-54
2023/08/20 14:00:38;;;;;;;6.68;4.68;;;;;;;28.43;47.65;98236.97;6217105;28;20592;-53
2023/08/20 14:03:41;;;;;;;6.18;4.50;;;;;;;28.27;46.81;98240.38;6216628;28;20243;-52